createdAt,value
2022-11-14T00:01:09.743Z,1.02
2022-11-14T00:03:36.820Z,0.75
2022-11-14T00:06:07.262Z,0.30
2022-11-14T00:08:34.867Z,0.77
2022-11-14T00:11:03.047Z,1.75
2022-11-14T00:13:30.018Z,1.45
2022-11-14T00:15:56.948Z,0.70
2022-11-14T00:18:24.301Z,0.55
2022-11-14T00:20:52.638Z,0.95
2022-11-14T00:23:21.230Z,0.93
2022-11-14T00:25:48.531Z,1.33
2022-11-14T00:28:15.830Z,2.08
2022-11-14T00:30:46.642Z,1.60
2022-11-14T00:33:18.747Z,2.20
2022-11-14T00:35:54.862Z,1.40
2022-11-14T00:38:22.519Z,1.67
2022-11-14T00:40:49.724Z,2.40
2022-11-14T00:43:16.929Z,1.75
2022-11-14T00:45:45.420Z,0.90
2022-11-14T00:48:12.368Z,1.50
2022-11-14T00:50:39.648Z,2.63
2022-11-14T00:53:06.640Z,1.08
2022-11-14T00:55:33.570Z,1.10
2022-11-14T00:58:00.556Z,2.13
2022-11-14T01:00:27.515Z,2.08
2022-11-14T01:02:56.986Z,1.15
2022-11-14T01:05:25.551Z,1.52
2022-11-14T01:07:52.526Z,1.05
2022-11-14T01:10:21.038Z,2.13
2022-11-14T01:12:48.112Z,1.05
2022-11-14T01:15:15.127Z,1.70
2022-11-14T01:17:42.165Z,2.17
2022-11-14T01:20:09.378Z,1.52
2022-11-14T01:22:36.313Z,1.92
2022-11-14T01:25:03.658Z,1.83
2022-11-14T01:27:33.723Z,2.33
2022-11-14T01:30:00.724Z,1.98
2022-11-14T01:32:28.083Z,1.33
2022-11-14T01:34:55.071Z,0.52
2022-11-14T01:37:22.455Z,1.90
2022-11-14T01:39:50.255Z,2.25
2022-11-14T01:42:17.793Z,1.83
2022-11-14T01:44:52.901Z,1.88
2022-11-14T01:47:32.493Z,1.30
2022-11-14T01:50:02.233Z,2.60
2022-11-14T01:52:39.028Z,1.38
2022-11-14T01:55:08.847Z,1.40
2022-11-14T01:57:44.240Z,0.60
2022-11-14T02:00:12.805Z,3.10
2022-11-14T02:02:39.770Z,1.92
2022-11-14T02:05:10.616Z,3.65
2022-11-14T02:07:41.085Z,2.13
2022-11-14T02:10:11.063Z,3.08
2022-11-14T02:12:38.574Z,2.35
2022-11-14T02:15:06.047Z,1.10
2022-11-14T02:17:33.107Z,2.45
2022-11-14T02:20:10.574Z,1.23
2022-11-14T02:22:38.899Z,1.83
2022-11-14T02:25:07.255Z,3.33
2022-11-14T02:27:35.196Z,1.70
2022-11-14T02:30:08.207Z,2.75
2022-11-14T02:32:56.917Z,1.35
2022-11-14T02:35:22.411Z,1.83
2022-11-14T02:37:49.414Z,2.85
2022-11-14T02:40:16.649Z,1.92
2022-11-14T02:42:43.794Z,2.42
2022-11-14T02:45:12.411Z,1.67
2022-11-14T02:47:39.389Z,2.92
2022-11-14T02:50:06.579Z,2.00
2022-11-14T02:52:33.523Z,2.55
2022-11-14T02:55:00.519Z,2.63
2022-11-14T02:57:27.488Z,2.75
2022-11-14T02:59:54.477Z,1.88
2022-11-14T03:02:21.455Z,2.05
2022-11-14T03:04:48.449Z,1.25
2022-11-14T03:07:15.456Z,2.70
2022-11-14T03:09:42.451Z,2.47
2022-11-14T03:12:09.566Z,1.48
2022-11-14T03:14:36.542Z,2.03
2022-11-14T03:17:03.741Z,1.27
2022-11-14T03:19:30.707Z,2.25
2022-11-14T03:21:57.641Z,2.05
2022-11-14T03:24:24.594Z,2.25
2022-11-14T03:26:51.733Z,3.30
2022-11-14T03:29:18.677Z,1.30
2022-11-14T03:31:45.628Z,2.28
2022-11-14T03:34:12.876Z,2.60
2022-11-14T03:36:40.136Z,1.95
2022-11-14T03:39:07.452Z,1.13
2022-11-14T03:41:34.463Z,1.60
2022-11-14T03:44:01.608Z,2.10
2022-11-14T03:46:28.588Z,3.25
2022-11-14T03:48:55.685Z,2.90
2022-11-14T03:51:22.739Z,3.75
2022-11-14T03:53:49.716Z,3.25
2022-11-14T03:56:16.665Z,2.95
2022-11-14T03:58:43.623Z,2.03
2022-11-14T04:01:10.793Z,1.45
2022-11-14T04:03:37.819Z,3.97
2022-11-14T04:06:04.890Z,1.15
2022-11-14T04:08:33.307Z,2.65
2022-11-14T04:11:00.535Z,3.15
2022-11-14T04:13:27.532Z,4.20
2022-11-14T04:15:56.187Z,2.90
2022-11-14T04:18:23.932Z,1.80
2022-11-14T04:20:51.245Z,2.78
2022-11-14T04:23:18.784Z,3.00
2022-11-14T04:25:46.625Z,2.35
2022-11-14T04:28:14.379Z,3.38
2022-11-14T04:30:41.728Z,4.10
2022-11-14T04:33:08.692Z,3.65
2022-11-14T04:35:35.695Z,3.45
2022-11-14T04:38:03.168Z,2.85
2022-11-14T04:40:30.277Z,2.63
2022-11-14T04:42:57.328Z,5.07
2022-11-14T04:45:24.446Z,3.03
2022-11-14T04:47:51.432Z,3.17
2022-11-14T04:50:18.593Z,2.78
2022-11-14T04:52:45.579Z,2.92
2022-11-14T04:55:12.559Z,4.13
2022-11-14T04:57:39.569Z,3.75
2022-11-14T05:00:07.371Z,3.80
2022-11-14T05:02:34.327Z,3.33
2022-11-14T05:05:01.275Z,4.32
2022-11-14T05:07:28.395Z,3.10
2022-11-14T05:09:55.361Z,4.72
2022-11-14T05:12:22.336Z,3.05
2022-11-14T05:14:49.342Z,3.08
2022-11-14T05:17:16.266Z,3.28
2022-11-14T05:19:43.246Z,2.38
2022-11-14T05:22:10.289Z,3.38
2022-11-14T05:24:37.218Z,3.88
2022-11-14T05:27:04.623Z,2.28
2022-11-14T05:29:31.725Z,3.97
2022-11-14T05:31:58.679Z,3.50
2022-11-14T05:34:25.654Z,1.33
2022-11-14T05:36:52.739Z,3.30
2022-11-14T05:39:19.740Z,4.65
2022-11-14T05:41:46.744Z,4.13
2022-11-14T05:44:13.770Z,3.67
2022-11-14T05:46:40.819Z,4.03
2022-11-14T05:49:07.763Z,3.03
2022-11-14T05:51:34.748Z,2.78
2022-11-14T05:54:01.684Z,4.90
2022-11-14T05:56:28.626Z,4.15
2022-11-14T05:58:55.589Z,3.72
2022-11-14T06:01:22.596Z,6.22
2022-11-14T06:03:49.608Z,3.65
2022-11-14T06:06:19.811Z,4.75
2022-11-14T06:08:47.109Z,4.30
2022-11-14T06:11:17.153Z,4.45
2022-11-14T06:13:44.643Z,4.05
2022-11-14T06:16:14.378Z,2.40
2022-11-14T06:18:41.810Z,5.10
2022-11-14T06:21:15.462Z,3.67
2022-11-14T06:23:43.092Z,3.97
2022-11-14T06:26:20.774Z,1.75
2022-11-14T06:28:49.444Z,4.38
2022-11-14T06:31:16.967Z,3.15
2022-11-14T06:33:44.409Z,3.03
2022-11-14T06:36:12.305Z,3.30
2022-11-14T06:38:41.513Z,4.03
2022-11-14T06:41:19.850Z,4.07
2022-11-14T06:43:49.145Z,2.13
2022-11-14T06:46:18.708Z,2.92
2022-11-14T06:48:46.798Z,3.25
2022-11-14T06:51:15.256Z,2.58
2022-11-14T06:53:42.960Z,3.88
2022-11-14T06:56:15.712Z,2.58
2022-11-14T06:58:45.722Z,1.98
2022-11-14T07:01:15.210Z,3.60
2022-11-14T07:03:43.515Z,3.22
2022-11-14T07:06:18.652Z,3.10
2022-11-14T07:08:45.631Z,2.63
2022-11-14T07:11:23.898Z,4.13
2022-11-14T07:13:58.541Z,2.97
2022-11-14T07:16:29.795Z,2.72
2022-11-14T07:18:57.957Z,3.65
2022-11-14T07:21:26.372Z,3.92
2022-11-14T07:23:53.408Z,3.05
2022-11-14T07:26:20.321Z,3.90
2022-11-14T07:28:52.300Z,3.60
2022-11-14T07:31:21.294Z,3.15
2022-11-14T07:33:48.893Z,2.92
2022-11-14T07:36:16.998Z,3.05
2022-11-14T07:38:44.108Z,4.45
2022-11-14T07:41:14.099Z,2.63
2022-11-14T07:43:41.924Z,3.40
2022-11-14T07:46:12.287Z,2.78
2022-11-14T07:48:39.251Z,2.95
2022-11-14T07:51:09.578Z,4.63
2022-11-14T07:53:36.858Z,4.32
2022-11-14T07:56:11.366Z,2.67
2022-11-14T07:58:39.559Z,3.50
2022-11-14T08:01:08.242Z,3.25
2022-11-14T08:03:35.608Z,2.90
2022-11-14T08:06:11.742Z,2.45
2022-11-14T08:08:38.875Z,2.47
2022-11-14T08:11:06.265Z,2.55
2022-11-14T08:13:34.006Z,3.95
2022-11-14T08:16:11.980Z,4.18
2022-11-14T08:18:40.208Z,1.77
2022-11-14T08:21:07.671Z,4.57
2022-11-14T08:23:34.751Z,4.90
2022-11-14T08:26:01.725Z,2.03
2022-11-14T08:28:29.182Z,3.45
2022-11-14T08:31:04.235Z,5.18
2022-11-14T08:33:32.306Z,3.30
2022-11-14T08:36:03.556Z,3.42
2022-11-14T08:38:32.139Z,5.13
2022-11-14T08:41:01.241Z,3.95
2022-11-14T08:43:28.824Z,3.13
2022-11-14T08:46:01.753Z,3.13
2022-11-14T08:48:30.434Z,3.85
2022-11-14T08:50:58.314Z,3.33
2022-11-14T08:53:25.494Z,4.70
2022-11-14T08:55:52.469Z,3.72
2022-11-14T08:58:19.415Z,3.50
2022-11-14T09:00:46.402Z,2.42
2022-11-14T09:03:16.170Z,3.17
2022-11-14T09:05:43.476Z,3.60
2022-11-14T09:08:10.435Z,4.22
2022-11-14T09:10:38.153Z,3.55
2022-11-14T09:13:05.193Z,4.15
2022-11-14T09:15:33.865Z,3.03
2022-11-14T09:18:00.934Z,3.83
2022-11-14T09:20:33.237Z,2.90
2022-11-14T09:23:04.045Z,3.70
2022-11-14T09:25:31.404Z,4.00
2022-11-14T09:27:58.923Z,5.28
2022-11-14T09:30:26.031Z,5.68
2022-11-14T09:32:52.979Z,3.83
2022-11-14T09:35:20.002Z,3.20
2022-11-14T09:37:46.980Z,3.63
2022-11-14T09:40:14.586Z,2.60
2022-11-14T09:43:22.579Z,3.72
2022-11-14T09:45:53.185Z,3.42
2022-11-14T09:48:29.963Z,4.70
2022-11-14T09:51:44.440Z,3.40
2022-11-14T09:54:25.183Z,5.63
2022-11-14T09:56:52.546Z,3.83
2022-11-14T09:59:19.605Z,6.22
2022-11-14T10:02:08.255Z,3.70
2022-11-14T10:04:58.348Z,4.63
2022-11-14T10:07:58.589Z,5.10
2022-11-14T10:10:52.248Z,5.18
2022-11-14T10:13:31.457Z,3.13
2022-11-14T10:16:36.847Z,5.13
2022-11-14T10:19:17.664Z,4.18
2022-11-14T10:22:15.272Z,3.95
2022-11-14T10:25:03.189Z,4.80
2022-11-14T10:27:38.532Z,2.95
2022-11-14T10:30:17.259Z,5.75
2022-11-14T10:33:35.377Z,4.63
2022-11-14T10:36:22.916Z,4.20
2022-11-14T10:39:06.346Z,3.22
2022-11-14T10:41:55.508Z,2.60
2022-11-14T10:44:27.001Z,4.88
2022-11-14T10:47:02.782Z,5.00
2022-11-14T10:49:32.869Z,3.70
2022-11-14T10:52:05.270Z,3.20
2022-11-14T10:54:50.475Z,4.20
2022-11-14T10:57:22.255Z,5.13
2022-11-14T10:59:49.354Z,3.55
2022-11-14T11:02:16.467Z,4.95
2022-11-14T11:04:45.221Z,2.10
2022-11-14T11:07:32.216Z,4.80
2022-11-14T11:10:21.468Z,4.88
2022-11-14T11:12:51.426Z,6.90
2022-11-14T11:15:20.488Z,5.43
2022-11-14T11:17:58.810Z,3.63
2022-11-14T11:20:38.095Z,4.65
2022-11-14T11:23:25.609Z,4.00
2022-11-14T11:26:09.227Z,2.78
2022-11-14T11:28:37.465Z,5.60
2022-11-14T11:31:07.795Z,4.68
2022-11-14T11:33:37.505Z,3.38
2022-11-14T11:36:04.687Z,4.15
2022-11-14T11:38:34.008Z,3.45
2022-11-14T11:41:15.626Z,4.97
2022-11-14T11:44:02.814Z,5.65
2022-11-14T11:46:49.168Z,4.10
2022-11-14T11:49:28.340Z,4.32
2022-11-14T11:51:57.289Z,5.18
2022-11-14T11:55:14.182Z,5.25
2022-11-14T11:58:10.066Z,3.85
2022-11-14T12:00:37.139Z,3.92
2022-11-14T12:03:10.085Z,3.97
2022-11-14T12:05:45.885Z,4.00
2022-11-14T12:08:27.018Z,5.40
2022-11-14T12:13:40.050Z,4.05
2022-11-14T12:16:13.182Z,3.80
2022-11-14T12:18:58.649Z,4.38
2022-11-14T12:21:49.525Z,3.85
2022-11-14T12:24:52.094Z,4.97
2022-11-14T12:27:56.389Z,5.20
2022-11-14T12:30:25.208Z,5.03
2022-11-14T12:33:01.352Z,5.13
2022-11-14T12:35:33.074Z,5.60
2022-11-14T12:38:03.213Z,4.82
2022-11-14T12:40:36.052Z,3.28
2022-11-14T12:43:04.105Z,4.50
2022-11-14T12:45:42.810Z,4.40
2022-11-14T12:48:29.282Z,6.80
2022-11-14T12:50:58.711Z,3.70
2022-11-14T12:53:37.408Z,5.03
2022-11-14T12:56:19.224Z,5.82
2022-11-14T12:58:52.935Z,4.40
2022-11-14T13:01:28.603Z,5.63
2022-11-14T13:04:28.431Z,5.88
2022-11-14T13:07:13.901Z,5.10
2022-11-14T13:10:35.035Z,4.28
2022-11-14T13:13:27.752Z,5.70
2022-11-14T13:16:21.186Z,5.13
2022-11-14T13:19:30.546Z,5.03
2022-11-14T13:22:12.442Z,4.57
2022-11-14T13:25:01.419Z,5.75
2022-11-14T13:28:00.664Z,6.45
2022-11-14T13:30:59.975Z,6.88
2022-11-14T13:33:48.638Z,4.57
2022-11-14T13:36:27.331Z,3.85
2022-11-14T13:39:27.382Z,4.60
2022-11-14T13:42:28.014Z,3.60
2022-11-14T13:45:14.900Z,5.07
2022-11-14T13:48:29.019Z,4.53
2022-11-14T13:51:28.920Z,4.95
2022-11-14T13:53:54.104Z,5.15
2022-11-14T13:56:34.609Z,4.15
2022-11-14T13:59:07.387Z,4.57
2022-11-14T14:01:37.163Z,6.18
2022-11-14T14:04:36.208Z,6.35
2022-11-14T14:07:32.778Z,4.07
2022-11-14T14:10:40.690Z,3.03
2022-11-14T14:13:32.595Z,3.85
2022-11-14T14:16:12.097Z,4.40
2022-11-14T14:18:55.987Z,4.47
2022-11-14T14:21:24.925Z,3.20
2022-11-14T14:24:16.678Z,4.97
2022-11-14T14:26:55.658Z,3.85
2022-11-14T14:29:37.172Z,3.58
2022-11-14T14:32:13.679Z,4.55
2022-11-14T14:34:42.229Z,3.67
2022-11-14T14:37:50.189Z,5.18
2022-11-14T14:40:25.023Z,5.18
2022-11-14T14:42:52.330Z,3.90
2022-11-14T14:45:21.511Z,4.60
2022-11-14T14:48:01.324Z,6.03
2022-11-14T14:50:40.255Z,5.63
2022-11-14T14:53:08.287Z,5.55
2022-11-14T14:55:36.669Z,3.63
2022-11-14T14:58:22.877Z,5.53
2022-11-14T15:01:11.414Z,4.15
2022-11-14T15:03:46.684Z,4.90
2022-11-14T15:06:32.704Z,4.95
2022-11-14T15:09:17.168Z,3.50
2022-11-14T15:11:46.499Z,5.05
2022-11-14T15:14:19.528Z,4.75
2022-11-14T15:16:50.160Z,3.35
2022-11-14T15:19:25.087Z,3.53
2022-11-14T15:22:16.133Z,3.53
2022-11-14T15:24:43.538Z,6.03
2022-11-14T15:27:20.450Z,4.50
2022-11-14T15:30:02.935Z,6.47
2022-11-14T15:32:30.037Z,5.28
2022-11-14T15:35:20.187Z,4.97
2022-11-14T15:38:43.688Z,3.03
2022-11-14T15:41:25.341Z,4.20
2022-11-14T15:43:53.807Z,4.47
2022-11-14T15:46:43.587Z,5.38
2022-11-14T15:49:25.583Z,6.38
2022-11-14T15:52:02.450Z,5.80
2022-11-14T15:54:31.473Z,4.38
2022-11-14T15:57:09.612Z,4.90
2022-11-14T15:59:36.666Z,6.32
2022-11-14T16:02:22.448Z,6.38
2022-11-14T16:04:52.220Z,4.32
2022-11-14T16:07:19.734Z,6.38
2022-11-14T16:09:46.877Z,4.07
2022-11-14T16:12:14.042Z,4.22
2022-11-14T16:14:41.442Z,4.65
2022-11-14T16:17:17.314Z,6.68
2022-11-14T16:19:44.760Z,6.43
2022-11-14T16:22:18.248Z,4.53
2022-11-14T16:24:45.472Z,6.20
2022-11-14T16:27:12.575Z,4.43
2022-11-14T16:29:39.637Z,4.72
2022-11-14T16:32:08.946Z,4.57
2022-11-14T16:34:35.919Z,6.10
2022-11-14T16:37:03.650Z,4.38
2022-11-14T16:39:32.023Z,7.22
2022-11-14T16:42:02.549Z,5.80
2022-11-14T16:44:30.134Z,6.03
2022-11-14T16:46:57.437Z,5.13
2022-11-14T16:49:25.352Z,4.78
2022-11-14T16:51:52.929Z,5.20
2022-11-14T16:54:20.653Z,5.18
2022-11-14T16:56:48.610Z,7.78
2022-11-14T16:59:15.740Z,5.00
2022-11-14T17:01:42.884Z,5.75
2022-11-14T17:04:09.919Z,6.95
2022-11-14T17:06:37.012Z,5.57
2022-11-14T17:09:04.088Z,4.97
2022-11-14T17:11:31.101Z,5.97
2022-11-14T17:13:59.003Z,5.75
2022-11-14T17:16:26.108Z,4.50
2022-11-14T17:18:54.721Z,4.43
2022-11-14T17:21:23.176Z,4.85
2022-11-14T17:23:57.728Z,4.20
2022-11-14T17:26:24.765Z,4.25
2022-11-14T17:28:51.987Z,5.20
2022-11-14T17:31:19.318Z,4.68
2022-11-14T17:33:54.702Z,4.75
2022-11-14T17:36:22.957Z,3.42
2022-11-14T17:38:49.997Z,5.28
2022-11-14T17:41:17.145Z,4.18
2022-11-14T17:43:44.935Z,4.90
2022-11-14T17:46:16.119Z,5.40
2022-11-14T17:48:44.745Z,5.32
2022-11-14T17:51:13.665Z,4.65
2022-11-14T17:53:41.192Z,5.18
2022-11-14T17:56:15.457Z,3.58
2022-11-14T17:58:42.992Z,6.25
2022-11-14T18:01:12.274Z,4.93
2022-11-14T18:03:39.378Z,4.13
2022-11-14T18:06:14.133Z,4.57
2022-11-14T18:08:41.169Z,3.95
2022-11-14T18:11:11.223Z,5.07
2022-11-14T18:13:39.290Z,3.15
2022-11-14T18:16:44.436Z,2.70
2022-11-14T18:19:14.271Z,6.68
2022-11-14T18:21:43.333Z,6.25
2022-11-14T18:24:13.579Z,5.90
2022-11-14T18:26:41.214Z,5.77
2022-11-14T18:29:08.439Z,5.18
2022-11-14T18:31:35.815Z,6.15
2022-11-14T18:34:02.975Z,4.97
2022-11-14T18:36:30.058Z,4.60
2022-11-14T18:38:58.147Z,7.03
2022-11-14T18:41:25.234Z,4.18
2022-11-14T18:43:56.098Z,3.97
2022-11-14T18:46:25.110Z,4.80
2022-11-14T18:48:59.932Z,4.05
2022-11-14T18:51:29.046Z,6.95
2022-11-14T18:53:59.368Z,5.82
2022-11-14T18:56:26.906Z,6.13
2022-11-14T18:58:56.232Z,4.20
2022-11-14T19:01:26.584Z,4.60
2022-11-14T19:03:56.770Z,5.25
2022-11-14T19:06:23.915Z,4.97
2022-11-14T19:08:51.147Z,4.20
2022-11-14T19:11:37.318Z,5.75
2022-11-14T19:14:06.477Z,5.32
2022-11-14T19:16:35.214Z,2.92
2022-11-14T19:19:02.749Z,5.35
2022-11-14T19:21:30.021Z,6.90
2022-11-14T19:23:59.646Z,5.78
2022-11-14T19:26:27.993Z,3.80
2022-11-14T19:28:55.753Z,6.10
2022-11-14T19:31:23.452Z,5.20
2022-11-14T19:33:50.568Z,5.43
2022-11-14T19:36:44.990Z,4.88
2022-11-14T19:39:07.576Z,5.18
2022-11-14T19:41:34.604Z,5.22
2022-11-14T19:44:02.948Z,4.72
2022-11-14T19:46:30.111Z,4.65
2022-11-14T19:49:01.547Z,4.90
2022-11-14T19:51:29.986Z,6.50
2022-11-14T19:53:59.112Z,6.90
2022-11-14T19:56:26.666Z,5.65
2022-11-14T19:58:56.382Z,5.70
2022-11-14T20:01:25.703Z,6.35
2022-11-14T20:03:55.966Z,4.38
2022-11-14T20:06:26.347Z,6.38
2022-11-14T20:08:54.781Z,7.95
2022-11-14T20:11:22.677Z,6.70
2022-11-14T20:13:49.878Z,5.93
2022-11-14T20:16:21.235Z,4.05
2022-11-14T20:18:53.257Z,5.47
2022-11-14T20:21:24.637Z,4.82
2022-11-14T20:23:52.214Z,4.65
2022-11-14T20:26:20.243Z,6.50
2022-11-14T20:28:49.235Z,4.85
2022-11-14T20:31:18.865Z,5.03
2022-11-14T20:33:47.836Z,5.70
2022-11-14T20:36:21.852Z,4.93
2022-11-14T20:38:48.904Z,7.10
2022-11-14T20:41:16.057Z,6.97
2022-11-14T20:43:43.724Z,5.20
2022-11-14T20:46:13.331Z,6.18
2022-11-14T20:48:41.541Z,7.55
2022-11-14T20:51:12.863Z,4.53
2022-11-14T20:53:40.287Z,5.70
2022-11-14T20:56:08.165Z,4.90
2022-11-14T20:58:35.208Z,4.68
2022-11-14T21:01:02.302Z,6.03
2022-11-14T21:03:30.031Z,7.43
2022-11-14T21:05:57.835Z,5.47
2022-11-14T21:08:25.022Z,5.72
2022-11-14T21:10:59.347Z,4.30
2022-11-14T21:13:45.396Z,5.13
2022-11-14T21:16:17.896Z,6.20
2022-11-14T21:18:48.123Z,5.40
2022-11-14T21:21:23.769Z,4.78
2022-11-14T21:23:51.532Z,4.15
2022-11-14T21:26:27.003Z,3.30
2022-11-14T21:28:57.196Z,7.07
2022-11-14T21:31:27.481Z,5.13
2022-11-14T21:33:58.844Z,4.43
2022-11-14T21:36:44.309Z,7.53
2022-11-14T21:39:15.272Z,3.53
2022-11-14T21:41:44.240Z,5.22
2022-11-14T21:44:14.646Z,5.63
2022-11-14T21:46:42.098Z,3.17
2022-11-14T21:49:09.978Z,5.03
2022-11-14T21:51:36.986Z,7.57
2022-11-14T21:54:05.233Z,5.72
2022-11-14T21:56:34.429Z,6.53
2022-11-14T21:59:16.270Z,9.20
2022-11-14T22:02:05.034Z,5.55
2022-11-14T22:04:32.840Z,5.60
2022-11-14T22:07:04.262Z,6.22
2022-11-14T22:09:32.148Z,7.18
2022-11-14T22:11:59.898Z,6.78
2022-11-14T22:14:27.367Z,5.30
2022-11-14T22:16:54.410Z,4.45
2022-11-14T22:19:21.800Z,6.38
2022-11-14T22:21:48.750Z,4.43
2022-11-14T22:24:15.744Z,7.82
2022-11-14T22:26:42.805Z,6.70
2022-11-14T22:29:09.856Z,7.15
2022-11-14T22:31:38.281Z,7.40
2022-11-14T22:34:05.804Z,5.03
2022-11-14T22:36:33.539Z,8.02
2022-11-14T22:39:00.581Z,5.30
2022-11-14T22:41:33.225Z,4.90
2022-11-14T22:44:01.818Z,7.45
2022-11-14T22:46:29.106Z,7.45
2022-11-14T22:48:56.491Z,4.55
2022-11-14T22:51:25.987Z,7.50
2022-11-14T22:53:55.085Z,6.45
2022-11-14T22:56:28.444Z,5.57
2022-11-14T22:58:56.358Z,6.32
2022-11-14T23:01:25.942Z,5.82
2022-11-14T23:03:55.554Z,4.50
2022-11-14T23:06:23.497Z,7.85
2022-11-14T23:08:51.715Z,7.13
2022-11-14T23:11:24.650Z,6.13
2022-11-14T23:13:54.141Z,6.57
2022-11-14T23:16:26.365Z,7.60
2022-11-14T23:18:55.398Z,5.97
2022-11-14T23:21:35.085Z,9.15
2022-11-14T23:24:05.254Z,6.80
2022-11-14T23:26:33.112Z,6.73
2022-11-14T23:29:00.847Z,8.43
2022-11-14T23:31:28.144Z,6.43
2022-11-14T23:33:58.241Z,7.47
2022-11-14T23:36:25.703Z,5.68
2022-11-14T23:38:53.612Z,5.85
2022-11-14T23:41:23.531Z,8.52
2022-11-14T23:43:50.539Z,6.70
2022-11-14T23:46:17.603Z,4.97
2022-11-14T23:48:44.626Z,6.13
2022-11-14T23:51:13.817Z,6.68
2022-11-14T23:53:41.247Z,6.05
2022-11-14T23:56:12.816Z,5.25
2022-11-14T23:58:40.497Z,6.68
